createdAt,value
2022-09-16T00:00:21.149Z,50.90
2022-09-16T00:02:48.328Z,51.00
2022-09-16T00:05:15.305Z,51.20
2022-09-16T00:07:42.164Z,50.80
2022-09-16T00:10:09.420Z,50.60
2022-09-16T00:12:38.182Z,50.30
2022-09-16T00:15:05.937Z,50.60
2022-09-16T00:17:32.825Z,50.20
2022-09-16T00:19:59.686Z,50.50
2022-09-16T00:22:28.730Z,50.60
2022-09-16T00:24:55.521Z,50.10
2022-09-16T00:27:22.580Z,50.40
2022-09-16T00:29:51.012Z,50.40
2022-09-16T00:32:18.022Z,50.50
2022-09-16T00:34:44.867Z,50.30
2022-09-16T00:37:11.767Z,50.40
2022-09-16T00:39:38.729Z,50.30
2022-09-16T00:42:06.114Z,50.40
2022-09-16T00:44:56.996Z,50.20
2022-09-16T00:47:28.492Z,50.20
2022-09-16T00:49:59.202Z,50.30
2022-09-16T00:52:27.236Z,50.40
2022-09-16T00:54:54.432Z,50.40
2022-09-16T00:57:21.311Z,50.80
2022-09-16T00:59:53.043Z,50.90
2022-09-16T01:02:22.338Z,50.60
2022-09-16T01:04:53.775Z,51.20
2022-09-16T01:07:27.475Z,50.40
2022-09-16T01:09:54.299Z,51.00
2022-09-16T01:12:21.341Z,50.70
2022-09-16T01:14:48.333Z,51.20
2022-09-16T01:17:22.052Z,51.40
2022-09-16T01:20:17.442Z,51.30
2022-09-16T01:23:00.048Z,51.40
2022-09-16T01:25:42.559Z,51.50
2022-09-16T01:28:24.449Z,51.50
2022-09-16T01:31:02.773Z,51.50
2022-09-16T01:33:41.151Z,51.50
2022-09-16T01:36:23.108Z,50.90
2022-09-16T01:39:00.380Z,51.10
2022-09-16T01:41:39.771Z,50.90
2022-09-16T01:44:15.543Z,51.00
2022-09-16T01:46:48.074Z,51.10
2022-09-16T01:49:21.423Z,51.80
2022-09-16T01:51:58.108Z,51.30
2022-09-16T01:54:31.996Z,51.80
2022-09-16T01:57:03.695Z,51.70
2022-09-16T01:59:37.788Z,51.40
2022-09-16T02:02:13.618Z,52.10
2022-09-16T02:04:45.963Z,51.60
2022-09-16T02:07:17.196Z,51.40
2022-09-16T02:09:50.565Z,51.80
2022-09-16T02:12:21.871Z,51.80
2022-09-16T02:14:50.867Z,51.50
2022-09-16T02:17:22.116Z,51.90
2022-09-16T02:19:54.855Z,51.80
2022-09-16T02:22:27.716Z,51.30
2022-09-16T02:24:54.740Z,51.60
2022-09-16T02:27:23.117Z,51.70
2022-09-16T02:29:54.220Z,51.80
2022-09-16T02:32:25.971Z,51.90
2022-09-16T02:34:53.687Z,51.60
2022-09-16T02:37:24.965Z,52.20
2022-09-16T02:39:56.332Z,51.70
2022-09-16T02:42:23.436Z,51.40
2022-09-16T02:44:50.467Z,51.00
2022-09-16T02:47:27.546Z,51.20
2022-09-16T02:49:57.513Z,51.30
2022-09-16T02:52:33.197Z,51.10
2022-09-16T02:55:05.498Z,52.20
2022-09-16T02:57:32.726Z,52.20
2022-09-16T02:59:59.596Z,52.00
2022-09-16T03:02:28.226Z,51.70
2022-09-16T03:04:55.113Z,51.60
2022-09-16T03:07:22.126Z,51.40
2022-09-16T03:09:50.492Z,51.80
2022-09-16T03:12:31.002Z,51.80
2022-09-16T03:15:16.074Z,51.70
2022-09-16T03:18:06.765Z,51.70
2022-09-16T03:20:43.612Z,51.50
2022-09-16T03:23:19.019Z,51.90
2022-09-16T03:25:54.525Z,51.70
2022-09-16T03:28:25.105Z,51.70
2022-09-16T03:30:59.240Z,51.60
2022-09-16T03:33:34.031Z,52.10
2022-09-16T03:36:05.147Z,51.90
2022-09-16T03:38:33.987Z,51.60
2022-09-16T03:41:02.796Z,51.30
2022-09-16T03:43:29.574Z,51.40
2022-09-16T03:45:56.480Z,51.70
2022-09-16T03:48:23.706Z,51.70
2022-09-16T03:50:51.910Z,51.40
2022-09-16T03:53:18.798Z,51.70
2022-09-16T03:55:45.634Z,51.70
2022-09-16T03:58:12.414Z,51.70
2022-09-16T04:00:39.164Z,52.20
2022-09-16T04:03:06.073Z,52.20
2022-09-16T04:05:33.022Z,52.40
2022-09-16T04:08:01.473Z,51.90
2022-09-16T04:10:28.339Z,52.10
2022-09-16T04:12:57.307Z,52.60
2022-09-16T04:15:24.145Z,52.60
2022-09-16T04:17:50.955Z,52.40
2022-09-16T04:20:18.007Z,52.80
2022-09-16T04:22:44.832Z,52.40
2022-09-16T04:25:13.147Z,52.70
2022-09-16T04:27:40.026Z,52.70
2022-09-16T04:30:08.127Z,51.70
2022-09-16T04:32:34.917Z,52.40
2022-09-16T04:35:01.808Z,52.90
2022-09-16T04:37:30.630Z,51.70
2022-09-16T04:40:01.006Z,52.00
2022-09-16T04:42:31.883Z,51.80
2022-09-16T04:44:58.815Z,51.40
2022-09-16T04:47:25.695Z,52.60
2022-09-16T04:49:52.514Z,52.10
2022-09-16T04:52:19.321Z,52.30
2022-09-16T04:54:46.281Z,52.10
2022-09-16T04:57:13.123Z,52.30
2022-09-16T04:59:41.348Z,51.80
2022-09-16T05:02:08.182Z,52.00
2022-09-16T05:04:35.000Z,51.80
2022-09-16T05:07:01.868Z,51.80
2022-09-16T05:09:28.840Z,52.00
2022-09-16T05:11:55.852Z,52.10
2022-09-16T05:14:22.672Z,52.00
2022-09-16T05:16:50.925Z,52.00
2022-09-16T05:19:17.876Z,52.80
2022-09-16T05:21:44.816Z,53.60
2022-09-16T05:24:13.289Z,53.60
2022-09-16T05:26:41.769Z,53.10
2022-09-16T05:29:11.250Z,53.00
2022-09-16T05:31:39.938Z,53.00
2022-09-16T05:34:12.164Z,52.90
2022-09-16T05:36:39.409Z,53.20
2022-09-16T05:39:24.076Z,53.40
2022-09-16T05:41:54.203Z,52.80
2022-09-16T05:44:21.045Z,52.90
2022-09-16T05:46:47.882Z,53.70
2022-09-16T05:49:16.212Z,53.00
2022-09-16T05:51:42.976Z,54.30
2022-09-16T05:54:09.773Z,54.60
2022-09-16T05:56:36.559Z,53.80
2022-09-16T05:59:03.379Z,54.00
2022-09-16T06:01:31.745Z,54.20
2022-09-16T06:04:00.575Z,53.40
2022-09-16T06:06:30.355Z,53.50
2022-09-16T06:08:59.226Z,54.70
2022-09-16T06:11:27.428Z,54.10
2022-09-16T06:13:55.183Z,53.60
2022-09-16T06:16:25.535Z,54.00
2022-09-16T06:18:52.559Z,54.00
2022-09-16T06:21:19.443Z,53.60
2022-09-16T06:23:47.862Z,54.50
2022-09-16T06:26:16.288Z,53.70
2022-09-16T06:28:43.859Z,53.70
2022-09-16T06:31:12.396Z,54.00
2022-09-16T06:33:40.119Z,54.00
2022-09-16T06:36:08.868Z,53.40
2022-09-16T06:38:35.952Z,54.60
2022-09-16T06:41:06.623Z,54.10
2022-09-16T06:43:34.402Z,53.80
2022-09-16T06:46:02.926Z,54.00
2022-09-16T06:48:33.072Z,54.00
2022-09-16T06:51:01.024Z,54.00
2022-09-16T06:53:28.440Z,54.40
2022-09-16T06:55:55.530Z,54.30
2022-09-16T06:58:23.651Z,54.30
2022-09-16T07:00:50.422Z,53.60
2022-09-16T07:03:17.562Z,54.10
2022-09-16T07:05:44.385Z,53.80
2022-09-16T07:08:11.152Z,53.90
2022-09-16T07:10:37.939Z,53.20
2022-09-16T07:13:04.776Z,54.10
2022-09-16T07:15:32.929Z,54.10
2022-09-16T07:17:59.636Z,53.30
2022-09-16T07:20:26.432Z,54.00
2022-09-16T07:22:53.222Z,53.80
2022-09-16T07:25:20.030Z,54.10
2022-09-16T07:27:46.852Z,54.10
2022-09-16T07:30:13.860Z,54.40
2022-09-16T07:32:42.235Z,53.80
2022-09-16T07:35:09.245Z,54.10
2022-09-16T07:37:39.371Z,53.70
2022-09-16T07:40:10.117Z,54.10
2022-09-16T07:42:36.989Z,53.60
2022-09-16T07:45:04.114Z,53.50
2022-09-16T07:47:30.895Z,53.20
2022-09-16T07:49:59.082Z,53.20
2022-09-16T07:52:26.515Z,53.60
2022-09-16T07:54:53.234Z,53.60
2022-09-16T07:57:19.954Z,53.20
2022-09-16T07:59:47.775Z,53.00
2022-09-16T08:02:14.925Z,53.00
2022-09-16T08:04:42.047Z,52.90
2022-09-16T08:07:10.219Z,53.00
2022-09-16T08:09:39.664Z,52.50
2022-09-16T08:12:09.750Z,52.60
2022-09-16T08:14:36.888Z,52.60
2022-09-16T08:17:04.024Z,52.50
2022-09-16T08:19:30.830Z,51.90
2022-09-16T08:21:57.645Z,52.30
2022-09-16T08:24:26.002Z,52.20
2022-09-16T08:26:52.813Z,51.70
2022-09-16T08:29:19.571Z,52.00
2022-09-16T08:31:46.438Z,51.90
2022-09-16T08:34:13.319Z,51.70
2022-09-16T08:36:40.123Z,51.70
2022-09-16T08:39:06.879Z,51.40
2022-09-16T08:41:47.490Z,51.60
2022-09-16T08:44:23.743Z,51.20
2022-09-16T08:46:53.676Z,51.20
2022-09-16T08:49:27.553Z,51.30
2022-09-16T08:51:55.082Z,50.70
2022-09-16T08:54:28.838Z,50.30
2022-09-16T08:57:00.904Z,50.00
2022-09-16T08:59:32.732Z,49.40
2022-09-16T09:02:12.317Z,48.80
2022-09-16T09:04:39.508Z,49.10
2022-09-16T09:07:16.213Z,48.80
2022-09-16T09:09:53.539Z,49.10
2022-09-16T09:12:29.322Z,48.10
2022-09-16T09:15:11.582Z,49.20
2022-09-16T09:17:52.588Z,47.40
2022-09-16T09:20:29.699Z,47.30
2022-09-16T09:23:12.064Z,46.70
2022-09-16T09:25:48.006Z,46.50
2022-09-16T09:28:36.054Z,47.60
2022-09-16T09:31:11.065Z,46.00
2022-09-16T09:33:47.204Z,46.20
2022-09-16T09:36:40.595Z,46.60
2022-09-16T09:39:27.200Z,46.70
2022-09-16T09:41:58.706Z,46.80
2022-09-16T09:44:41.442Z,45.10
2022-09-16T09:47:13.760Z,44.00
2022-09-16T09:49:44.303Z,43.90
2022-09-16T09:52:16.465Z,43.40
2022-09-16T09:54:46.202Z,43.90
2022-09-16T09:57:18.196Z,44.60
2022-09-16T09:59:50.952Z,43.40
2022-09-16T10:02:20.284Z,43.60
2022-09-16T10:04:47.385Z,43.90
2022-09-16T10:07:18.017Z,43.00
2022-09-16T10:09:49.685Z,44.30
2022-09-16T10:12:27.868Z,43.70
2022-09-16T10:14:56.409Z,41.30
2022-09-16T10:17:23.335Z,42.70
2022-09-16T10:19:52.928Z,43.00
2022-09-16T10:22:22.066Z,43.00
2022-09-16T10:24:54.902Z,43.70
2022-09-16T10:27:24.434Z,42.50
2022-09-16T10:30:11.836Z,41.60
2022-09-16T10:32:47.126Z,42.40
2022-09-16T10:35:20.583Z,42.40
2022-09-16T10:37:53.330Z,42.50
2022-09-16T10:40:21.138Z,42.80
2022-09-16T10:42:48.484Z,43.20
2022-09-16T10:45:23.392Z,42.90
2022-09-16T10:47:53.469Z,43.10
2022-09-16T10:50:20.704Z,42.70
2022-09-16T10:52:48.548Z,41.50
2022-09-16T10:55:26.531Z,40.20
2022-09-16T10:58:06.344Z,40.20
2022-09-16T11:00:45.599Z,40.20
2022-09-16T11:03:38.107Z,41.30
2022-09-16T11:06:17.291Z,40.10
2022-09-16T11:08:57.488Z,39.60
2022-09-16T11:11:42.650Z,39.50
2022-09-16T11:14:17.496Z,39.60
2022-09-16T11:17:02.568Z,40.50
2022-09-16T11:19:38.961Z,40.60
2022-09-16T11:22:17.497Z,40.40
2022-09-16T11:24:58.412Z,41.30
2022-09-16T11:27:38.731Z,42.50
2022-09-16T11:30:11.497Z,42.90
2022-09-16T11:33:01.947Z,40.60
2022-09-16T11:36:01.864Z,40.30
2022-09-16T11:38:39.939Z,39.10
2022-09-16T11:41:15.227Z,39.00
2022-09-16T11:43:58.592Z,39.40
2022-09-16T11:46:36.731Z,38.90
2022-09-16T11:49:33.607Z,40.00
2022-09-16T11:52:09.854Z,39.80
2022-09-16T11:55:08.335Z,39.50
2022-09-16T11:57:38.049Z,38.80
2022-09-16T12:00:07.262Z,39.00
2022-09-16T12:02:40.207Z,38.80
2022-09-16T12:05:17.268Z,39.00
2022-09-16T12:07:50.369Z,39.60
2022-09-16T12:10:22.683Z,39.40
2022-09-16T12:12:53.141Z,38.70
2022-09-16T12:15:24.555Z,38.90
2022-09-16T12:17:55.313Z,39.20
2022-09-16T12:20:28.283Z,38.80
2022-09-16T12:23:00.874Z,38.70
2022-09-16T12:25:33.295Z,39.50
2022-09-16T12:28:03.557Z,37.80
2022-09-16T12:30:36.653Z,37.90
2022-09-16T12:33:08.887Z,37.70
2022-09-16T12:35:41.068Z,37.70
2022-09-16T12:38:16.173Z,37.70
2022-09-16T12:41:01.524Z,38.40
2022-09-16T12:43:58.991Z,38.40
2022-09-16T12:46:53.010Z,39.00
2022-09-16T12:50:05.258Z,38.30
2022-09-16T12:53:02.855Z,38.30
2022-09-16T12:55:42.831Z,37.70
2022-09-16T12:58:46.631Z,38.80
2022-09-16T13:01:20.545Z,40.20
2022-09-16T13:03:50.842Z,38.20
2022-09-16T13:06:23.791Z,37.20
2022-09-16T13:08:53.208Z,37.90
2022-09-16T13:14:21.721Z,37.10
2022-09-16T13:16:54.476Z,39.00
2022-09-16T13:19:35.673Z,40.00
2022-09-16T13:22:23.477Z,38.90
2022-09-16T13:24:58.005Z,39.20
2022-09-16T13:27:33.705Z,38.10
2022-09-16T13:30:16.672Z,37.70
2022-09-16T13:32:56.851Z,38.50
2022-09-16T13:35:35.682Z,37.60
2022-09-16T13:38:25.047Z,37.30
2022-09-16T13:40:58.382Z,36.70
2022-09-16T13:43:36.476Z,36.50
2022-09-16T13:46:09.440Z,37.50
2022-09-16T13:48:41.854Z,36.80
2022-09-16T13:51:16.183Z,37.20
2022-09-16T13:53:46.339Z,36.10
2022-09-16T13:56:28.419Z,36.20
2022-09-16T13:59:04.366Z,35.40
2022-09-16T14:01:56.015Z,34.90
2022-09-16T14:04:39.945Z,34.70
2022-09-16T14:07:22.146Z,33.50
2022-09-16T14:09:56.076Z,33.30
2022-09-16T14:12:32.481Z,33.90
2022-09-16T14:15:00.742Z,33.90
2022-09-16T14:17:34.710Z,35.40
2022-09-16T14:20:02.086Z,34.40
2022-09-16T14:22:29.094Z,34.50
2022-09-16T14:25:06.412Z,35.80
2022-09-16T14:27:44.233Z,35.10
2022-09-16T14:30:16.705Z,35.00
2022-09-16T14:32:44.884Z,35.20
2022-09-16T14:35:17.773Z,34.50
2022-09-16T14:37:46.755Z,34.40
2022-09-16T14:40:15.999Z,34.90
2022-09-16T14:42:49.362Z,34.50
2022-09-16T14:45:17.343Z,34.60
2022-09-16T14:47:51.495Z,34.50
2022-09-16T14:50:22.495Z,33.70
2022-09-16T14:52:54.755Z,34.50
2022-09-16T14:55:24.325Z,35.50
2022-09-16T14:57:52.918Z,34.80
2022-09-16T15:00:27.765Z,35.40
2022-09-16T15:02:58.197Z,37.20
2022-09-16T15:05:32.532Z,38.30
2022-09-16T15:08:14.147Z,39.30
2022-09-16T15:10:51.990Z,40.30
2022-09-16T15:13:24.229Z,40.70
2022-09-16T15:15:54.267Z,40.90
2022-09-16T15:18:24.491Z,40.90
2022-09-16T15:20:56.477Z,41.10
2022-09-16T15:23:25.604Z,40.60
2022-09-16T15:25:56.232Z,39.60
2022-09-16T15:28:24.690Z,40.40
2022-09-16T15:30:52.839Z,39.50
2022-09-16T15:33:25.405Z,39.20
2022-09-16T15:35:52.563Z,39.10
2022-09-16T15:38:21.800Z,39.20
2022-09-16T15:40:49.268Z,40.00
2022-09-16T15:43:20.968Z,39.80
2022-09-16T15:45:59.818Z,40.30
2022-09-16T15:48:31.108Z,40.30
2022-09-16T15:51:01.104Z,41.40
2022-09-16T15:53:39.515Z,40.50
2022-09-16T15:56:09.501Z,40.80
2022-09-16T15:58:39.873Z,41.00
2022-09-16T16:01:12.795Z,40.70
2022-09-16T16:03:52.042Z,40.40
2022-09-16T16:06:19.247Z,40.50
2022-09-16T16:08:47.926Z,40.60
2022-09-16T16:11:16.812Z,40.90
2022-09-16T16:13:43.923Z,40.90
2022-09-16T16:16:13.376Z,40.40
2022-09-16T16:18:42.115Z,39.40
2022-09-16T16:21:10.437Z,37.00
2022-09-16T16:23:37.981Z,36.90
2022-09-16T16:26:05.695Z,36.60
2022-09-16T16:28:32.864Z,36.50
2022-09-16T16:31:12.692Z,37.00
2022-09-16T16:33:44.527Z,36.30
2022-09-16T16:36:12.692Z,36.70
2022-09-16T16:38:39.482Z,36.60
2022-09-16T16:41:06.671Z,36.70
2022-09-16T16:43:33.480Z,37.40
2022-09-16T16:46:00.341Z,36.20
2022-09-16T16:48:29.184Z,36.50
2022-09-16T16:51:00.779Z,36.70
2022-09-16T16:53:28.268Z,37.30
2022-09-16T16:56:01.841Z,37.40
2022-09-16T16:58:29.825Z,37.80
2022-09-16T17:00:56.625Z,38.20
2022-09-16T17:03:23.494Z,37.70
2022-09-16T17:05:51.794Z,37.60
2022-09-16T17:08:18.685Z,38.00
2022-09-16T17:10:45.486Z,38.40
2022-09-16T17:13:12.238Z,38.40
2022-09-16T17:15:39.120Z,38.10
2022-09-16T17:18:06.034Z,38.60
2022-09-16T17:20:32.807Z,38.70
2022-09-16T17:23:01.078Z,38.40
2022-09-16T17:25:27.815Z,38.40
2022-09-16T17:27:55.575Z,38.60
2022-09-16T17:30:22.453Z,38.70
2022-09-16T17:32:49.309Z,39.00
2022-09-16T17:35:16.104Z,39.00
2022-09-16T17:37:42.900Z,39.40
2022-09-16T17:40:11.584Z,39.30
2022-09-16T17:42:38.471Z,39.60
2022-09-16T17:45:06.354Z,40.00
2022-09-16T17:47:33.487Z,40.30
2022-09-16T17:50:00.494Z,39.70
2022-09-16T17:52:27.496Z,39.90
2022-09-16T17:54:54.312Z,39.90
2022-09-16T17:57:22.523Z,39.80
2022-09-16T17:59:49.304Z,39.80
2022-09-16T18:02:16.164Z,39.60
2022-09-16T18:04:43.149Z,40.50
2022-09-16T18:07:10.003Z,40.00
2022-09-16T18:09:36.920Z,39.60
2022-09-16T18:12:03.928Z,39.60
2022-09-16T18:14:32.311Z,39.80
2022-09-16T18:16:59.770Z,39.80
2022-09-16T18:19:26.671Z,40.10
2022-09-16T18:21:53.497Z,40.10
2022-09-16T18:24:20.467Z,40.30
2022-09-16T18:26:47.308Z,40.70
2022-09-16T18:29:14.628Z,40.40
2022-09-16T18:31:45.802Z,40.90
2022-09-16T18:34:13.855Z,40.80
2022-09-16T18:36:41.257Z,41.00
2022-09-16T18:39:12.924Z,41.00
2022-09-16T18:41:41.536Z,41.20
2022-09-16T18:44:13.020Z,41.30
2022-09-16T18:46:40.023Z,41.40
2022-09-16T18:49:11.145Z,41.30
2022-09-16T18:51:40.808Z,41.60
2022-09-16T18:54:11.186Z,41.60
2022-09-16T18:56:39.749Z,41.70
2022-09-16T18:59:27.722Z,41.90
2022-09-16T19:01:56.645Z,41.90
2022-09-16T19:04:27.890Z,42.00
2022-09-16T19:06:56.674Z,42.10
2022-09-16T19:09:24.288Z,42.00
2022-09-16T19:11:52.397Z,42.10
2022-09-16T19:14:19.370Z,42.20
2022-09-16T19:16:46.280Z,42.40
2022-09-16T19:19:14.622Z,42.60
2022-09-16T19:21:43.406Z,42.40
2022-09-16T19:24:13.107Z,42.70
2022-09-16T19:26:40.944Z,42.70
2022-09-16T19:29:08.498Z,42.70
2022-09-16T19:31:37.939Z,42.90
2022-09-16T19:34:05.303Z,42.80
2022-09-16T19:36:33.378Z,43.00
2022-09-16T19:39:01.713Z,43.10
2022-09-16T19:41:29.953Z,43.20
2022-09-16T19:43:58.525Z,43.60
2022-09-16T19:46:26.390Z,43.60
2022-09-16T19:48:54.159Z,44.00
2022-09-16T19:51:22.291Z,44.30
2022-09-16T19:53:49.602Z,44.70
2022-09-16T19:56:19.573Z,44.80
2022-09-16T19:58:46.363Z,45.00
2022-09-16T20:01:14.982Z,45.10
2022-09-16T20:03:42.627Z,45.50
2022-09-16T20:06:11.759Z,45.30
2022-09-16T20:08:40.699Z,45.40
2022-09-16T20:11:09.906Z,45.40
2022-09-16T20:13:38.296Z,45.60
2022-09-16T20:16:07.513Z,45.70
2022-09-16T20:18:36.019Z,45.90
2022-09-16T20:21:04.538Z,45.80
2022-09-16T20:23:32.267Z,45.70
2022-09-16T20:26:00.564Z,45.70
2022-09-16T20:28:30.393Z,45.70
2022-09-16T20:30:58.870Z,45.40
2022-09-16T20:33:29.064Z,45.50
2022-09-16T20:36:02.371Z,45.70
2022-09-16T20:38:29.128Z,45.60
2022-09-16T20:40:55.908Z,45.80
2022-09-16T20:43:22.760Z,45.90
2022-09-16T20:45:49.559Z,45.90
2022-09-16T20:48:17.739Z,46.10
2022-09-16T20:50:44.526Z,46.10
2022-09-16T20:53:11.380Z,46.20
2022-09-16T20:55:38.203Z,46.40
2022-09-16T20:58:04.976Z,46.20
2022-09-16T21:00:31.933Z,46.70
2022-09-16T21:02:58.825Z,46.80
2022-09-16T21:05:27.162Z,47.00
2022-09-16T21:07:55.903Z,47.50
2022-09-16T21:10:22.920Z,46.90
2022-09-16T21:12:49.756Z,47.50
2022-09-16T21:15:16.552Z,47.70
2022-09-16T21:17:43.337Z,48.10
2022-09-16T21:20:10.579Z,48.30
2022-09-16T21:22:38.783Z,48.50
2022-09-16T21:25:06.288Z,48.60
2022-09-16T21:27:33.217Z,49.00
2022-09-16T21:30:00.164Z,49.00
2022-09-16T21:32:26.895Z,49.10
2022-09-16T21:34:53.739Z,49.30
2022-09-16T21:37:20.563Z,49.50
2022-09-16T21:39:48.906Z,49.60
2022-09-16T21:42:15.753Z,49.90
2022-09-16T21:44:42.585Z,50.30
2022-09-16T21:47:09.447Z,50.20
2022-09-16T21:49:36.336Z,50.70
2022-09-16T21:52:03.447Z,50.10
2022-09-16T21:54:30.347Z,50.70
2022-09-16T21:56:58.495Z,50.90
2022-09-16T21:59:25.412Z,51.40
2022-09-16T22:01:52.751Z,51.50
2022-09-16T22:04:21.119Z,51.60
2022-09-16T22:06:48.883Z,51.60
2022-09-16T22:09:15.846Z,51.90
2022-09-16T22:11:42.793Z,51.80
2022-09-16T22:14:11.313Z,51.80
2022-09-16T22:16:39.718Z,52.20
2022-09-16T22:19:08.443Z,52.80
2022-09-16T22:21:37.761Z,52.10
2022-09-16T22:24:05.908Z,52.40
2022-09-16T22:26:33.422Z,52.50
2022-09-16T22:29:00.585Z,52.40
2022-09-16T22:31:30.998Z,52.60
2022-09-16T22:33:59.915Z,52.20
2022-09-16T22:36:28.479Z,52.70
2022-09-16T22:38:56.872Z,52.40
2022-09-16T22:41:24.723Z,52.40
2022-09-16T22:43:53.167Z,52.20
2022-09-16T22:46:22.129Z,52.30
2022-09-16T22:48:50.668Z,52.30
2022-09-16T22:51:18.787Z,51.90
2022-09-16T22:53:46.338Z,52.40
2022-09-16T22:56:15.237Z,52.30
2022-09-16T22:58:42.523Z,52.30
2022-09-16T23:01:11.395Z,52.50
2022-09-16T23:03:39.355Z,52.60
2022-09-16T23:06:10.375Z,52.70
2022-09-16T23:08:38.753Z,52.70
2022-09-16T23:11:07.754Z,52.70
2022-09-16T23:13:35.689Z,52.60
2022-09-16T23:16:04.189Z,52.90
2022-09-16T23:18:32.331Z,53.20
2022-09-16T23:21:00.221Z,53.30
2022-09-16T23:23:29.196Z,53.50
2022-09-16T23:25:56.514Z,53.70
2022-09-16T23:28:23.554Z,53.70
2022-09-16T23:30:50.456Z,53.50
2022-09-16T23:33:17.365Z,53.70
2022-09-16T23:35:49.393Z,53.50
2022-09-16T23:38:16.467Z,53.50
2022-09-16T23:40:44.724Z,53.70
2022-09-16T23:43:11.568Z,53.60
2022-09-16T23:45:38.317Z,53.40
2022-09-16T23:48:05.498Z,54.00
2022-09-16T23:50:32.343Z,54.00
2022-09-16T23:52:59.690Z,54.30
2022-09-16T23:55:27.147Z,54.30
2022-09-16T23:57:55.483Z,54.30
